createdAt,value
2022-12-16T00:01:53.951Z,97133.81
2022-12-16T00:05:57.059Z,97128.13
2022-12-16T00:09:59.161Z,97130.50
2022-12-16T00:14:01.190Z,97136.66
2022-12-16T00:18:03.249Z,97138.56
2022-12-16T00:22:05.344Z,97144.38
2022-12-16T00:26:08.425Z,97153.81
2022-12-16T00:30:10.919Z,97160.88
2022-12-16T00:34:13.022Z,97167.47
2022-12-16T00:38:15.788Z,97150.19
2022-12-16T00:42:17.998Z,97154.44
2022-12-16T00:46:20.277Z,97142.34
2022-12-16T00:50:22.583Z,97144.69
2022-12-16T00:54:24.740Z,97142.94
2022-12-16T00:58:27.665Z,97136.81
2022-12-16T01:02:29.916Z,97128.78
2022-12-16T01:06:32.212Z,97127.53
2022-12-16T01:10:34.985Z,97127.69
2022-12-16T01:14:37.636Z,97123.13
2022-12-16T01:18:39.855Z,97124.53
2022-12-16T01:22:42.096Z,97130.50
2022-12-16T01:26:44.284Z,97132.06
2022-12-16T01:30:46.461Z,97136.00
2022-12-16T01:34:55.416Z,97141.38
2022-12-16T01:38:57.835Z,97135.38
2022-12-16T01:42:59.977Z,97137.53
2022-12-16T01:47:06.037Z,97127.94
2022-12-16T01:51:23.941Z,97119.00
2022-12-16T01:55:32.640Z,97098.72
2022-12-16T01:59:41.805Z,97109.59
2022-12-16T02:03:44.781Z,97112.28
2022-12-16T02:08:12.781Z,97124.53
2022-12-16T02:12:28.624Z,97114.28
2022-12-16T02:16:54.505Z,97111.28
2022-12-16T02:21:02.992Z,97124.66
2022-12-16T02:25:17.371Z,97129.69
2022-12-16T02:29:37.630Z,97131.41
2022-12-16T02:34:32.289Z,97132.34
2022-12-16T02:38:46.291Z,97121.81
2022-12-16T02:42:55.421Z,97107.50
2022-12-16T02:46:57.577Z,97094.44
2022-12-16T02:51:00.343Z,97098.84
2022-12-16T02:55:06.539Z,97114.94
2022-12-16T02:59:29.881Z,97123.56
2022-12-16T03:03:45.231Z,97136.63
2022-12-16T03:07:50.172Z,97143.41
2022-12-16T03:11:55.096Z,97144.03
2022-12-16T03:16:00.460Z,97150.31
2022-12-16T03:20:47.449Z,97141.19
2022-12-16T03:24:49.786Z,97141.66
2022-12-16T03:29:09.308Z,97145.44
2022-12-16T03:33:36.345Z,97157.56
2022-12-16T03:37:39.172Z,97154.47
2022-12-16T03:41:44.359Z,97161.50
2022-12-16T03:52:49.637Z,97166.44
2022-12-16T03:56:52.392Z,97172.56
2022-12-16T04:00:54.555Z,97158.25
2022-12-16T04:04:57.819Z,97154.28
2022-12-16T04:09:00.229Z,97170.19
2022-12-16T04:13:20.952Z,97163.13
2022-12-16T04:17:41.474Z,97169.59
2022-12-16T04:22:02.418Z,97165.38
2022-12-16T04:26:05.269Z,97158.63
2022-12-16T04:30:20.545Z,97168.19
2022-12-16T04:34:25.943Z,97162.72
2022-12-16T04:38:46.502Z,97150.75
2022-12-16T04:43:06.996Z,97162.38
2022-12-16T04:47:27.782Z,97163.94
2022-12-16T04:51:48.559Z,97157.03
2022-12-16T04:56:09.228Z,97159.38
2022-12-16T05:00:31.003Z,97143.66
2022-12-16T05:04:51.750Z,97154.03
2022-12-16T05:09:12.469Z,97155.59
2022-12-16T05:13:33.458Z,97172.75
2022-12-16T05:17:54.452Z,97182.00
2022-12-16T05:22:14.996Z,97190.81
2022-12-16T05:26:36.080Z,97185.38
2022-12-16T05:30:57.470Z,97185.50
2022-12-16T05:35:18.144Z,97188.50
2022-12-16T05:39:38.719Z,97198.59
2022-12-16T05:43:59.274Z,97209.09
2022-12-16T05:48:33.530Z,97210.38
2022-12-16T05:52:54.111Z,97203.31
2022-12-16T05:57:14.549Z,97217.16
2022-12-16T06:01:35.322Z,97207.09
2022-12-16T06:05:56.032Z,97209.63
2022-12-16T06:10:17.025Z,97215.13
2022-12-16T06:19:22.245Z,97211.81
2022-12-16T06:23:42.893Z,97218.91
2022-12-16T06:28:11.519Z,97214.03
2022-12-16T06:32:43.411Z,97223.00
2022-12-16T06:37:08.848Z,97224.09
2022-12-16T06:41:29.402Z,97223.50
2022-12-16T06:45:50.296Z,97224.28
2022-12-16T06:50:11.131Z,97244.75
2022-12-16T06:54:31.897Z,97254.03
2022-12-16T06:58:52.641Z,97265.53
2022-12-16T07:03:17.763Z,97281.09
2022-12-16T07:07:39.105Z,97297.81
2022-12-16T07:12:00.041Z,97315.59
2022-12-16T07:16:20.995Z,97321.88
2022-12-16T07:20:43.430Z,97333.72
2022-12-16T07:25:04.205Z,97326.63
2022-12-16T07:29:24.823Z,97332.44
2022-12-16T07:33:45.336Z,97328.69
2022-12-16T07:38:06.175Z,97342.06
2022-12-16T07:42:26.918Z,97351.34
2022-12-16T07:46:47.404Z,97356.72
2022-12-16T07:51:08.376Z,97368.22
2022-12-16T07:55:29.604Z,97372.59
2022-12-16T07:59:51.202Z,97367.75
2022-12-16T08:04:11.828Z,97371.03
2022-12-16T08:08:32.816Z,97374.50
2022-12-16T08:12:53.401Z,97386.19
2022-12-16T08:17:14.504Z,97386.69
2022-12-16T08:21:35.121Z,97393.94
2022-12-16T08:25:55.970Z,97392.03
2022-12-16T08:30:16.524Z,97406.34
2022-12-16T08:34:37.300Z,97404.00
2022-12-16T08:38:58.057Z,97397.84
2022-12-16T08:43:18.789Z,97402.56
2022-12-16T08:47:40.173Z,97402.88
2022-12-16T08:52:00.728Z,97410.59
2022-12-16T08:56:21.183Z,97411.72
2022-12-16T09:00:41.692Z,97424.66
2022-12-16T09:05:05.467Z,97415.19
2022-12-16T09:09:27.000Z,97421.81
2022-12-16T09:13:47.932Z,97427.81
2022-12-16T09:18:15.529Z,97432.34
2022-12-16T09:22:36.135Z,97437.88
2022-12-16T09:26:56.946Z,97422.53
2022-12-16T09:31:17.841Z,97430.56
2022-12-16T09:35:41.133Z,97423.44
2022-12-16T09:40:01.802Z,97427.97
2022-12-16T09:44:42.323Z,97433.00
2022-12-16T09:49:12.281Z,97424.75
2022-12-16T09:53:41.651Z,97417.22
2022-12-16T09:58:18.984Z,97414.28
2022-12-16T10:02:42.057Z,97404.16
2022-12-16T10:07:22.156Z,97392.28
2022-12-16T10:12:00.937Z,97394.69
2022-12-16T10:16:37.229Z,97387.19
2022-12-16T10:21:13.430Z,97404.09
2022-12-16T10:25:39.812Z,97402.25
2022-12-16T10:30:03.479Z,97392.91
2022-12-16T10:34:31.406Z,97399.19
2022-12-16T10:39:05.461Z,97405.91
2022-12-16T10:43:36.342Z,97400.84
2022-12-16T10:48:29.395Z,97398.06
2022-12-16T10:53:19.158Z,97407.09
2022-12-16T10:57:42.821Z,97399.09
2022-12-16T11:02:41.511Z,97398.97
2022-12-16T11:07:03.321Z,97406.75
2022-12-16T11:11:32.638Z,97414.72
2022-12-16T11:15:53.504Z,97423.09
2022-12-16T11:20:35.309Z,97432.91
2022-12-16T11:24:56.141Z,97440.38
2022-12-16T11:29:35.940Z,97454.25
2022-12-16T11:34:12.848Z,97446.66
2022-12-16T11:39:01.987Z,97433.19
2022-12-16T11:43:25.124Z,97432.03
2022-12-16T11:47:54.469Z,97420.06
2022-12-16T11:52:36.799Z,97422.09
2022-12-16T11:57:04.315Z,97415.94
2022-12-16T12:01:38.844Z,97394.47
2022-12-16T12:06:24.039Z,97397.06
2022-12-16T12:11:06.304Z,97394.72
2022-12-16T12:15:49.505Z,97393.22
2022-12-16T12:20:38.044Z,97396.81
2022-12-16T12:25:16.702Z,97394.69
2022-12-16T12:30:16.349Z,97393.25
2022-12-16T12:34:59.494Z,97395.41
2022-12-16T12:39:36.967Z,97407.34
2022-12-16T12:44:10.231Z,97399.16
2022-12-16T12:48:57.452Z,97403.69
2022-12-16T12:53:45.115Z,97414.63
2022-12-16T12:58:09.166Z,97427.63
2022-12-16T13:02:45.896Z,97426.75
2022-12-16T13:07:07.186Z,97431.94
2022-12-16T13:11:35.185Z,97426.44
2022-12-16T13:15:58.272Z,97426.13
2022-12-16T13:20:19.433Z,97439.41
2022-12-16T13:24:58.818Z,97447.78
2022-12-16T13:29:45.102Z,97444.81
2022-12-16T13:34:10.673Z,97451.09
2022-12-16T13:38:37.493Z,97466.88
2022-12-16T13:43:01.975Z,97466.25
2022-12-16T13:47:51.429Z,97491.03
2022-12-16T13:52:19.268Z,97499.66
2022-12-16T13:56:49.031Z,97505.84
2022-12-16T14:01:24.416Z,97508.34
2022-12-16T14:05:49.518Z,97518.91
2022-12-16T14:10:12.150Z,97504.47
2022-12-16T14:14:49.331Z,97507.13
2022-12-16T14:19:31.326Z,97501.31
2022-12-16T14:24:11.077Z,97506.19
2022-12-16T14:28:57.345Z,97496.88
2022-12-16T14:33:18.203Z,97496.16
2022-12-16T14:37:56.548Z,97504.66
2022-12-16T14:42:17.445Z,97504.59
2022-12-16T14:46:48.803Z,97525.91
2022-12-16T14:51:09.611Z,97507.94
2022-12-16T14:55:46.923Z,97523.88
2022-12-16T15:00:19.216Z,97519.91
2022-12-16T15:04:41.233Z,97517.56
2022-12-16T15:09:15.852Z,97508.50
2022-12-16T15:13:37.471Z,97516.78
2022-12-16T15:18:04.132Z,97529.88
2022-12-16T15:22:24.986Z,97544.25
2022-12-16T15:26:49.527Z,97539.06
2022-12-16T15:31:10.231Z,97539.28
2022-12-16T15:36:10.038Z,97553.94
2022-12-16T15:40:40.140Z,97571.81
2022-12-16T15:45:09.213Z,97564.09
2022-12-16T15:49:58.031Z,97562.31
2022-12-16T15:54:23.833Z,97575.47
2022-12-16T15:58:55.386Z,97579.50
2022-12-16T16:03:16.677Z,97567.72
2022-12-16T16:07:41.746Z,97576.81
2022-12-16T16:12:02.951Z,97567.06
2022-12-16T16:16:24.242Z,97568.97
2022-12-16T16:20:46.394Z,97568.88
2022-12-16T16:25:07.260Z,97578.47
2022-12-16T16:29:30.081Z,97578.09
2022-12-16T16:33:50.804Z,97574.97
2022-12-16T16:38:15.453Z,97576.28
2022-12-16T16:42:40.066Z,97583.63
2022-12-16T16:47:03.214Z,97578.47
2022-12-16T16:56:18.123Z,97576.81
2022-12-16T17:00:44.613Z,97576.81
2022-12-16T17:05:07.764Z,97584.03
2022-12-16T17:09:28.617Z,97589.97
2022-12-16T17:13:49.440Z,97581.38
2022-12-16T17:18:09.948Z,97593.16
2022-12-16T17:22:30.478Z,97602.53
2022-12-16T17:26:51.500Z,97613.53
2022-12-16T17:31:12.634Z,97623.69
2022-12-16T17:35:33.241Z,97629.47
2022-12-16T17:39:54.303Z,97620.84
2022-12-16T17:44:14.970Z,97621.03
2022-12-16T17:48:35.651Z,97633.97
2022-12-16T17:52:58.375Z,97628.41
2022-12-16T17:57:19.141Z,97637.28
2022-12-16T18:01:41.070Z,97639.09
2022-12-16T18:06:01.815Z,97640.03
2022-12-16T18:10:23.052Z,97638.56
2022-12-16T18:14:45.143Z,97630.78
2022-12-16T18:19:09.600Z,97636.81
2022-12-16T18:23:31.825Z,97630.97
2022-12-16T18:27:55.235Z,97639.78
2022-12-16T18:32:19.996Z,97639.34
2022-12-16T18:36:40.970Z,97640.09
2022-12-16T18:41:01.767Z,97640.78
2022-12-16T18:45:23.057Z,97653.88
2022-12-16T18:49:44.279Z,97643.06
2022-12-16T18:54:05.304Z,97646.94
2022-12-16T18:58:50.332Z,97642.13
2022-12-16T19:03:06.531Z,97647.47
2022-12-16T19:07:27.250Z,97650.91
2022-12-16T19:11:47.995Z,97655.53
2022-12-16T19:16:16.022Z,97663.38
2022-12-16T19:20:36.794Z,97664.03
2022-12-16T19:24:57.614Z,97662.97
2022-12-16T19:29:18.226Z,97668.53
2022-12-16T19:33:38.942Z,97676.56
2022-12-16T19:37:59.601Z,97678.16
2022-12-16T19:42:20.418Z,97679.97
2022-12-16T19:46:41.016Z,97692.06
2022-12-16T19:51:01.880Z,97695.09
2022-12-16T19:55:22.563Z,97698.75
2022-12-16T19:59:43.050Z,97704.88
2022-12-16T20:04:03.613Z,97698.97
2022-12-16T20:08:24.148Z,97710.72
2022-12-16T20:12:49.686Z,97713.41
2022-12-16T20:17:12.874Z,97714.41
2022-12-16T20:21:37.111Z,97712.16
2022-12-16T20:25:57.752Z,97711.09
2022-12-16T20:30:18.996Z,97718.09
2022-12-16T20:34:40.111Z,97723.69
2022-12-16T20:39:00.957Z,97736.91
2022-12-16T20:43:21.808Z,97744.44
2022-12-16T20:47:42.553Z,97736.47
2022-12-16T20:52:03.286Z,97744.59
2022-12-16T20:56:24.008Z,97752.38
2022-12-16T21:00:44.634Z,97747.31
2022-12-16T21:05:05.390Z,97754.41
2022-12-16T21:09:26.167Z,97761.03
2022-12-16T21:13:46.972Z,97760.88
2022-12-16T21:18:08.589Z,97756.34
2022-12-16T21:22:30.262Z,97771.81
2022-12-16T21:26:51.833Z,97776.94
2022-12-16T21:31:16.114Z,97783.53
2022-12-16T21:35:38.006Z,97780.56
2022-12-16T21:39:58.719Z,97796.34
2022-12-16T21:44:20.017Z,97798.44
2022-12-16T21:48:40.678Z,97806.06
2022-12-16T21:53:01.242Z,97816.00
2022-12-16T21:57:21.917Z,97819.09
2022-12-16T22:01:42.536Z,97825.16
2022-12-16T22:06:03.353Z,97825.16
2022-12-16T22:10:24.672Z,97828.13
2022-12-16T22:14:45.270Z,97830.78
2022-12-16T22:19:05.918Z,97834.06
2022-12-16T22:23:28.319Z,97822.59
2022-12-16T22:27:49.237Z,97832.19
2022-12-16T22:32:26.664Z,97826.81
2022-12-16T22:36:54.203Z,97824.06
2022-12-16T22:41:19.197Z,97824.00
2022-12-16T22:45:41.429Z,97833.53
2022-12-16T22:50:03.161Z,97832.97
2022-12-16T22:54:24.629Z,97836.19
2022-12-16T22:58:45.237Z,97832.91
2022-12-16T23:03:05.845Z,97843.34
2022-12-16T23:07:27.554Z,97845.06
2022-12-16T23:11:56.591Z,97842.19
2022-12-16T23:16:17.496Z,97849.25
2022-12-16T23:20:38.097Z,97841.03
2022-12-16T23:24:58.514Z,97844.69
2022-12-16T23:29:19.123Z,97851.03
2022-12-16T23:33:40.061Z,97840.53
2022-12-16T23:38:01.041Z,97847.16
2022-12-16T23:42:21.585Z,97853.06
2022-12-16T23:46:42.614Z,97856.63
2022-12-16T23:51:13.815Z,97859.59
2022-12-16T23:55:35.473Z,97856.81
2022-12-16T23:59:56.389Z,97870.16
